createdAt,value
2023-05-14T00:00:48.573Z,99959.13
2023-05-14T00:02:51.238Z,100045.06
2023-05-14T00:04:54.110Z,100018.56
2023-05-14T00:06:56.443Z,100007.06
2023-05-14T00:08:58.809Z,100045.91
2023-05-14T00:11:01.717Z,100034.88
2023-05-14T00:13:04.082Z,99993.44
2023-05-14T00:15:07.334Z,100014.66
2023-05-14T00:17:09.887Z,100033.94
2023-05-14T00:19:12.355Z,100015.69
2023-05-14T00:21:14.925Z,100036.00
2023-05-14T00:23:17.622Z,100049.09
2023-05-14T00:25:20.840Z,100067.03
2023-05-14T00:27:23.814Z,99999.00
2023-05-14T00:29:26.763Z,100015.28
2023-05-14T00:31:29.380Z,100019.72
2023-05-14T00:33:31.922Z,99987.69
2023-05-14T00:35:37.644Z,99977.38
2023-05-14T00:37:40.187Z,100013.28
2023-05-14T00:39:42.919Z,99995.22
2023-05-14T00:41:45.722Z,100023.34
2023-05-14T00:43:48.286Z,99984.09
2023-05-14T00:45:54.929Z,99985.84
2023-05-14T00:47:57.547Z,99956.53
2023-05-14T00:50:00.110Z,99994.91
2023-05-14T00:52:03.118Z,100011.41
2023-05-14T00:54:06.687Z,100021.00
2023-05-14T00:56:09.925Z,100025.81
2023-05-14T00:58:14.267Z,100026.03
2023-05-14T01:00:17.557Z,100032.84
2023-05-14T01:02:20.148Z,100038.50
2023-05-14T01:04:23.366Z,100033.63
2023-05-14T01:07:02.444Z,100074.59
2023-05-14T01:09:29.510Z,100067.06
2023-05-14T01:12:19.047Z,100041.22
2023-05-14T01:14:29.593Z,100034.28
2023-05-14T01:16:35.694Z,99967.38
2023-05-14T01:18:40.409Z,100013.44
2023-05-14T01:20:44.212Z,100061.59
2023-05-14T01:22:46.828Z,99973.31
2023-05-14T01:24:49.740Z,100081.31
2023-05-14T01:26:53.122Z,100001.28
2023-05-14T01:29:14.768Z,100029.03
2023-05-14T01:31:25.470Z,100015.09
2023-05-14T01:33:30.588Z,100033.16
2023-05-14T01:35:34.041Z,100082.03
2023-05-14T01:37:37.611Z,100042.22
2023-05-14T01:39:42.594Z,100033.56
2023-05-14T01:41:47.401Z,99997.75
2023-05-14T01:43:51.180Z,100056.97
2023-05-14T01:45:55.794Z,99991.66
2023-05-14T01:48:00.285Z,100071.50
2023-05-14T01:50:02.903Z,100051.59
2023-05-14T01:52:07.619Z,100005.69
2023-05-14T01:54:10.111Z,99922.44
2023-05-14T01:56:12.618Z,100028.56
2023-05-14T01:58:15.312Z,100045.16
2023-05-14T02:00:18.118Z,100031.44
2023-05-14T02:02:20.935Z,100068.88
2023-05-14T02:04:23.588Z,100006.25
2023-05-14T02:06:26.885Z,100023.81
2023-05-14T02:08:31.716Z,99950.56
2023-05-14T02:10:34.433Z,99998.50
2023-05-14T02:12:38.077Z,100015.94
2023-05-14T02:14:40.600Z,99976.13
2023-05-14T02:16:43.317Z,100021.69
2023-05-14T02:18:45.745Z,100004.50
2023-05-14T02:20:49.120Z,99936.28
2023-05-14T02:22:53.499Z,100000.53
2023-05-14T02:24:56.909Z,100024.75
2023-05-14T02:27:01.320Z,100039.88
2023-05-14T02:29:03.828Z,99971.66
2023-05-14T02:31:06.420Z,99985.88
2023-05-14T02:33:09.609Z,100010.66
2023-05-14T02:35:12.535Z,99976.91
2023-05-14T02:37:15.128Z,99991.13
2023-05-14T02:39:17.911Z,99970.88
2023-05-14T02:41:22.053Z,100036.91
2023-05-14T02:43:24.848Z,100011.13
2023-05-14T02:45:28.351Z,99997.28
2023-05-14T02:47:31.153Z,99986.84
2023-05-14T02:49:33.644Z,99974.38
2023-05-14T02:51:36.652Z,99999.53
2023-05-14T02:53:39.127Z,100002.47
2023-05-14T02:55:41.963Z,99957.88
2023-05-14T02:57:45.265Z,99992.72
2023-05-14T02:59:48.022Z,99907.91
2023-05-14T03:01:51.733Z,99967.41
2023-05-14T03:03:55.716Z,99914.31
2023-05-14T03:05:58.275Z,99925.53
2023-05-14T03:08:01.459Z,99950.28
2023-05-14T03:10:04.605Z,99954.63
2023-05-14T03:12:08.217Z,99922.34
2023-05-14T03:14:11.283Z,99994.78
2023-05-14T03:16:14.081Z,99919.56
2023-05-14T03:18:16.884Z,99931.88
2023-05-14T03:20:19.642Z,99976.88
2023-05-14T03:22:22.236Z,99872.97
2023-05-14T03:24:24.909Z,99963.69
2023-05-14T03:26:27.339Z,99877.75
2023-05-14T03:28:30.239Z,99897.75
2023-05-14T03:30:32.764Z,99873.06
2023-05-14T03:32:35.951Z,99917.19
2023-05-14T03:34:39.171Z,99846.78
2023-05-14T03:36:42.446Z,99953.84
2023-05-14T03:38:45.088Z,99879.41
2023-05-14T03:40:49.274Z,99970.34
2023-05-14T03:42:51.717Z,99959.34
2023-05-14T03:44:54.443Z,99947.91
2023-05-14T03:46:56.826Z,99975.31
2023-05-14T03:48:59.302Z,99968.34
2023-05-14T03:51:02.895Z,99957.34
2023-05-14T03:53:05.421Z,99993.56
2023-05-14T03:55:08.351Z,99881.72
2023-05-14T03:57:11.972Z,99947.06
2023-05-14T03:59:14.460Z,99959.44
2023-05-14T04:01:16.947Z,99923.06
2023-05-14T04:03:19.940Z,99950.00
2023-05-14T04:05:23.072Z,99986.47
2023-05-14T04:07:25.793Z,99944.84
2023-05-14T04:09:28.973Z,99928.44
2023-05-14T04:11:32.335Z,99887.16
2023-05-14T04:13:35.777Z,100000.66
2023-05-14T04:15:39.889Z,99961.34
2023-05-14T04:17:44.118Z,99961.03
2023-05-14T04:19:48.378Z,100001.09
2023-05-14T04:21:51.224Z,99947.59
2023-05-14T04:23:54.875Z,99972.09
2023-05-14T04:25:57.732Z,99931.72
2023-05-14T04:28:00.611Z,99979.50
2023-05-14T04:30:03.375Z,99891.91
2023-05-14T04:32:07.288Z,99917.38
2023-05-14T04:34:09.957Z,99972.34
2023-05-14T04:36:13.285Z,99923.59
2023-05-14T04:38:16.120Z,99960.69
2023-05-14T04:40:19.572Z,99938.50
2023-05-14T04:42:22.410Z,99907.06
2023-05-14T04:44:24.868Z,99920.59
2023-05-14T04:46:27.284Z,99957.28
2023-05-14T04:48:29.842Z,99937.72
2023-05-14T04:50:32.677Z,99954.94
2023-05-14T04:52:35.366Z,99940.03
2023-05-14T04:54:37.774Z,99942.31
2023-05-14T04:56:40.424Z,99893.13
2023-05-14T04:58:43.556Z,99885.41
2023-05-14T05:00:46.638Z,99939.41
2023-05-14T05:02:49.397Z,99898.50
2023-05-14T05:04:51.880Z,99954.69
2023-05-14T05:06:54.173Z,99929.03
2023-05-14T05:08:57.064Z,99918.47
2023-05-14T05:10:59.696Z,99944.19
2023-05-14T05:13:02.485Z,99957.28
2023-05-14T05:15:07.020Z,99887.16
2023-05-14T05:17:09.904Z,99910.16
2023-05-14T05:19:12.721Z,99927.53
2023-05-14T05:21:19.132Z,99913.16
2023-05-14T05:23:21.806Z,99873.94
2023-05-14T05:25:24.074Z,99907.25
2023-05-14T05:27:27.093Z,99899.34
2023-05-14T05:29:30.171Z,99940.41
2023-05-14T05:31:32.847Z,99970.41
2023-05-14T05:33:36.104Z,99928.97
2023-05-14T05:35:39.062Z,99912.53
2023-05-14T05:37:43.089Z,99924.78
2023-05-14T05:39:46.034Z,99936.75
2023-05-14T05:41:48.666Z,99920.22
2023-05-14T05:43:51.305Z,99958.03
2023-05-14T05:45:53.777Z,99889.00
2023-05-14T05:47:56.359Z,99977.28
2023-05-14T05:50:00.186Z,99955.34
2023-05-14T05:52:03.186Z,99951.53
2023-05-14T05:54:05.942Z,99943.88
2023-05-14T05:56:09.137Z,99927.06
2023-05-14T05:58:11.672Z,99980.63
2023-05-14T06:00:15.825Z,99931.53
2023-05-14T06:02:20.054Z,99946.72
2023-05-14T06:04:22.822Z,99952.59
2023-05-14T06:06:25.240Z,99913.91
2023-05-14T06:08:30.806Z,99933.72
2023-05-14T06:10:35.140Z,99940.81
2023-05-14T06:12:38.022Z,99947.31
2023-05-14T06:14:43.967Z,99947.69
2023-05-14T06:16:49.591Z,99906.53
2023-05-14T06:18:53.409Z,99941.88
2023-05-14T06:20:57.584Z,99943.72
2023-05-14T06:23:00.114Z,99941.91
2023-05-14T06:25:03.324Z,99900.03
2023-05-14T06:27:07.183Z,99949.63
2023-05-14T06:29:09.733Z,99904.88
2023-05-14T06:31:12.180Z,99899.56
2023-05-14T06:33:15.984Z,99885.66
2023-05-14T06:35:19.842Z,99913.06
2023-05-14T06:37:22.652Z,99915.25
2023-05-14T06:39:25.437Z,99928.22
2023-05-14T06:41:30.341Z,99941.97
2023-05-14T06:43:32.833Z,99974.19
2023-05-14T06:45:36.409Z,99929.09
2023-05-14T06:47:38.865Z,99960.13
2023-05-14T06:49:41.174Z,99953.69
2023-05-14T06:51:43.994Z,99941.16
2023-05-14T06:53:47.721Z,99928.69
2023-05-14T06:55:51.203Z,99921.69
2023-05-14T06:57:53.409Z,99940.91
2023-05-14T06:59:55.955Z,99966.13
2023-05-14T07:01:59.412Z,99957.44
2023-05-14T07:04:02.098Z,99925.09
2023-05-14T07:06:05.068Z,99916.28
2023-05-14T07:08:07.682Z,99927.59
2023-05-14T07:10:10.713Z,99957.56
2023-05-14T07:12:13.635Z,99921.41
2023-05-14T07:14:16.911Z,99918.97
2023-05-14T07:16:20.114Z,99901.97
2023-05-14T07:18:24.889Z,99945.59
2023-05-14T07:20:27.943Z,99918.97
2023-05-14T07:22:30.536Z,99923.69
2023-05-14T07:24:33.233Z,99957.44
2023-05-14T07:26:35.903Z,99909.84
2023-05-14T07:28:38.687Z,99927.13
2023-05-14T07:30:41.910Z,99867.16
2023-05-14T07:32:44.846Z,99881.75
2023-05-14T07:34:47.876Z,99920.47
2023-05-14T07:36:50.461Z,99947.09
2023-05-14T07:38:53.131Z,99890.22
2023-05-14T07:40:56.854Z,99910.00
2023-05-14T07:42:59.805Z,99916.03
2023-05-14T07:45:02.515Z,99877.09
2023-05-14T07:47:07.959Z,99923.69
2023-05-14T07:49:10.871Z,99918.59
2023-05-14T07:51:13.379Z,99914.09
2023-05-14T07:53:16.388Z,99914.34
2023-05-14T07:55:18.932Z,99925.38
2023-05-14T07:57:22.445Z,99901.84
2023-05-14T07:59:25.396Z,99901.66
2023-05-14T08:01:28.121Z,99877.09
2023-05-14T08:03:30.968Z,99912.03
2023-05-14T08:05:33.580Z,99892.53
2023-05-14T08:07:36.236Z,99910.19
2023-05-14T08:09:38.919Z,99868.03
2023-05-14T08:11:41.749Z,99837.34
2023-05-14T08:13:45.009Z,99846.72
2023-05-14T08:15:48.217Z,99849.25
2023-05-14T08:17:50.813Z,99878.25
2023-05-14T08:19:54.756Z,99864.84
2023-05-14T08:21:57.616Z,99870.84
2023-05-14T08:24:00.800Z,99867.47
2023-05-14T08:26:03.575Z,99871.34
2023-05-14T08:28:06.450Z,99854.19
2023-05-14T08:30:09.798Z,99890.22
2023-05-14T08:32:22.784Z,99857.50
2023-05-14T08:34:26.574Z,99832.69
2023-05-14T08:36:30.247Z,99878.22
2023-05-14T08:38:32.945Z,99829.78
2023-05-14T08:40:35.745Z,99861.63
2023-05-14T08:42:42.144Z,99863.44
2023-05-14T08:44:54.055Z,99892.84
2023-05-14T08:46:58.103Z,99829.97
2023-05-14T08:49:37.895Z,99851.84
2023-05-14T08:51:41.333Z,99850.16
2023-05-14T08:53:44.064Z,99852.38
2023-05-14T08:55:49.991Z,99861.25
2023-05-14T08:57:52.777Z,99842.06
2023-05-14T08:59:55.458Z,99865.28
2023-05-14T09:02:02.300Z,99833.34
2023-05-14T09:04:09.562Z,99832.22
2023-05-14T09:06:15.031Z,99852.75
2023-05-14T09:08:17.638Z,99818.59
2023-05-14T09:10:21.869Z,99807.44
2023-05-14T09:12:24.681Z,99833.47
2023-05-14T09:14:27.496Z,99804.88
2023-05-14T09:16:31.220Z,99813.03
2023-05-14T09:18:36.503Z,99830.06
2023-05-14T09:20:39.561Z,99841.47
2023-05-14T09:22:43.130Z,99826.63
2023-05-14T09:24:46.797Z,99795.75
2023-05-14T09:26:57.957Z,99825.81
2023-05-14T09:29:02.741Z,99851.41
2023-05-14T09:31:05.851Z,99824.91
2023-05-14T09:33:10.849Z,99788.69
2023-05-14T09:35:19.469Z,99835.22
2023-05-14T09:37:22.828Z,99789.72
2023-05-14T09:39:26.872Z,99814.94
2023-05-14T09:41:29.778Z,99832.41
2023-05-14T09:43:32.878Z,99787.19
2023-05-14T09:45:35.960Z,99793.78
2023-05-14T09:47:39.610Z,99796.06
2023-05-14T09:49:42.540Z,99791.25
2023-05-14T09:51:45.635Z,99798.56
2023-05-14T09:53:49.338Z,99794.72
2023-05-14T09:55:52.465Z,99821.63
2023-05-14T09:57:54.840Z,99806.25
2023-05-14T09:59:57.506Z,99800.16
2023-05-14T10:02:01.680Z,99793.28
2023-05-14T10:04:07.998Z,99753.88
2023-05-14T10:06:15.500Z,99784.94
2023-05-14T10:08:54.629Z,99803.34
2023-05-14T10:11:00.267Z,99801.41
2023-05-14T10:13:11.301Z,99771.97
2023-05-14T10:15:20.661Z,99779.34
2023-05-14T10:17:28.274Z,99727.06
2023-05-14T10:19:37.976Z,99761.81
2023-05-14T10:21:45.399Z,99756.72
2023-05-14T10:23:49.460Z,99749.88
2023-05-14T10:25:51.914Z,99742.69
2023-05-14T10:27:55.297Z,99763.13
2023-05-14T10:29:58.467Z,99760.53
2023-05-14T10:32:07.278Z,99754.47
2023-05-14T10:34:38.884Z,99735.41
2023-05-14T10:36:42.834Z,99730.81
2023-05-14T10:38:45.625Z,99725.53
2023-05-14T10:40:48.354Z,99725.44
2023-05-14T10:42:51.363Z,99721.66
2023-05-14T10:44:59.002Z,99754.81
2023-05-14T10:47:03.040Z,99728.94
2023-05-14T10:49:06.167Z,99739.41
2023-05-14T10:51:13.226Z,99734.88
2023-05-14T10:53:16.022Z,99677.72
2023-05-14T10:55:18.949Z,99761.38
2023-05-14T10:57:23.061Z,99700.53
2023-05-14T10:59:28.948Z,99718.63
2023-05-14T11:01:32.676Z,99756.63
2023-05-14T11:03:46.702Z,99748.81
2023-05-14T11:05:50.322Z,99725.56
2023-05-14T11:07:56.448Z,99726.56
2023-05-14T11:10:05.111Z,99731.09
2023-05-14T11:12:09.298Z,99712.41
2023-05-14T11:14:12.692Z,99745.75
2023-05-14T11:16:23.436Z,99709.84
2023-05-14T11:18:31.420Z,99707.22
2023-05-14T11:20:36.609Z,99714.13
2023-05-14T11:22:43.764Z,99730.50
2023-05-14T11:24:46.504Z,99707.81
2023-05-14T11:26:49.599Z,99709.16
2023-05-14T11:28:52.685Z,99681.88
2023-05-14T11:30:55.184Z,99705.28
2023-05-14T11:32:59.321Z,99693.03
2023-05-14T11:35:03.801Z,99713.75
2023-05-14T11:37:08.246Z,99668.56
2023-05-14T11:39:19.347Z,99694.38
2023-05-14T11:41:23.575Z,99689.16
2023-05-14T11:43:29.611Z,99682.50
2023-05-14T11:45:33.399Z,99700.13
2023-05-14T11:47:36.060Z,99658.97
2023-05-14T11:49:38.596Z,99646.59
2023-05-14T11:51:41.991Z,99679.81
2023-05-14T11:53:46.954Z,99676.75
2023-05-14T11:55:49.626Z,99662.75
2023-05-14T11:57:52.792Z,99616.56
2023-05-14T12:00:00.355Z,99667.00
2023-05-14T12:02:05.548Z,99668.06
2023-05-14T12:04:08.495Z,99708.06
2023-05-14T12:06:11.595Z,99665.41
2023-05-14T12:08:24.267Z,99684.28
2023-05-14T12:10:27.300Z,99671.50
2023-05-14T12:12:36.340Z,99675.78
2023-05-14T12:14:42.292Z,99663.63
2023-05-14T12:16:46.588Z,99679.84
2023-05-14T12:18:50.044Z,99648.19
2023-05-14T12:20:53.170Z,99664.41
2023-05-14T12:22:55.615Z,99646.38
2023-05-14T12:25:00.814Z,99626.69
2023-05-14T12:27:03.675Z,99656.50
2023-05-14T12:29:09.668Z,99651.06
2023-05-14T12:31:12.038Z,99628.50
2023-05-14T12:33:18.887Z,99626.28
2023-05-14T12:35:22.965Z,99590.16
2023-05-14T12:37:27.385Z,99639.81
2023-05-14T12:39:34.322Z,99638.59
2023-05-14T12:41:37.672Z,99617.06
2023-05-14T12:43:44.510Z,99636.28
2023-05-14T12:45:47.210Z,99641.72
2023-05-14T12:47:50.574Z,99642.47
2023-05-14T12:49:53.311Z,99623.41
2023-05-14T12:52:07.772Z,99631.25
2023-05-14T12:54:18.545Z,99640.00
2023-05-14T12:56:22.359Z,99626.28
2023-05-14T12:58:25.126Z,99629.69
2023-05-14T13:00:28.465Z,99572.34
2023-05-14T13:02:31.086Z,99639.50
2023-05-14T13:04:34.307Z,99634.44
2023-05-14T13:06:37.231Z,99591.66
2023-05-14T13:08:40.996Z,99629.84
2023-05-14T13:10:45.711Z,99611.97
2023-05-14T13:12:48.860Z,99623.72
2023-05-14T13:14:51.628Z,99574.22
2023-05-14T13:16:54.019Z,99623.31
2023-05-14T13:18:56.539Z,99644.84
2023-05-14T13:20:59.354Z,99613.53
2023-05-14T13:23:02.745Z,99576.91
2023-05-14T13:25:06.539Z,99566.28
2023-05-14T13:27:09.055Z,99609.50
2023-05-14T13:29:12.222Z,99580.47
2023-05-14T13:31:15.246Z,99598.69
2023-05-14T13:33:17.961Z,99575.28
2023-05-14T13:35:20.435Z,99570.41
2023-05-14T13:37:24.242Z,99525.69
2023-05-14T13:39:27.605Z,99551.09
2023-05-14T13:41:30.511Z,99628.69
2023-05-14T13:43:34.697Z,99598.91
2023-05-14T13:45:37.289Z,99555.28
2023-05-14T13:47:40.430Z,99617.06
2023-05-14T13:49:43.602Z,99585.44
2023-05-14T13:51:46.748Z,99573.19
2023-05-14T13:53:50.564Z,99593.59
2023-05-14T13:56:01.699Z,99578.81
2023-05-14T13:58:04.888Z,99585.00
2023-05-14T14:00:08.916Z,99555.81
2023-05-14T14:02:11.780Z,99550.34
2023-05-14T14:04:16.736Z,99541.66
2023-05-14T14:06:20.313Z,99568.66
2023-05-14T14:08:24.506Z,99536.63
2023-05-14T14:10:27.483Z,99559.38
2023-05-14T14:12:30.107Z,99539.44
2023-05-14T14:14:33.167Z,99543.97
2023-05-14T14:16:36.966Z,99507.47
2023-05-14T14:18:39.819Z,99529.34
2023-05-14T14:20:42.643Z,99511.81
2023-05-14T14:22:45.474Z,99535.34
2023-05-14T14:24:47.957Z,99534.75
2023-05-14T14:26:50.715Z,99545.50
2023-05-14T14:28:53.600Z,99559.25
2023-05-14T14:30:56.512Z,99580.13
2023-05-14T14:33:01.932Z,99534.97
2023-05-14T14:35:05.985Z,99542.28
2023-05-14T14:37:08.872Z,99532.13
2023-05-14T14:39:11.652Z,99483.28
2023-05-14T14:41:14.785Z,99498.94
2023-05-14T14:43:17.726Z,99504.22
2023-05-14T14:45:20.623Z,99504.84
2023-05-14T14:47:23.732Z,99513.16
2023-05-14T14:49:26.696Z,99455.13
2023-05-14T14:51:30.664Z,99476.44
2023-05-14T14:53:34.472Z,99511.38
2023-05-14T14:55:37.446Z,99484.78
2023-05-14T14:57:40.158Z,99533.84
2023-05-14T14:59:42.731Z,99493.72
2023-05-14T15:01:45.521Z,99483.56
2023-05-14T15:03:48.946Z,99510.34
2023-05-14T15:05:53.913Z,99472.22
2023-05-14T15:07:56.807Z,99419.44
2023-05-14T15:10:01.029Z,99466.94
2023-05-14T15:12:03.728Z,99465.25
2023-05-14T15:14:06.440Z,99469.28
2023-05-14T15:16:09.744Z,99449.41
2023-05-14T15:18:12.961Z,99469.47
2023-05-14T15:20:16.611Z,99456.28
2023-05-14T15:22:19.428Z,99444.88
2023-05-14T15:24:24.410Z,99415.25
2023-05-14T15:26:27.039Z,99461.25
2023-05-14T15:28:29.631Z,99458.00
2023-05-14T15:30:31.996Z,99454.97
2023-05-14T15:32:34.962Z,99452.53
2023-05-14T15:34:37.788Z,99459.44
2023-05-14T15:36:41.256Z,99455.38
2023-05-14T15:38:43.852Z,99457.56
2023-05-14T15:40:46.626Z,99429.97
2023-05-14T15:42:49.118Z,99469.31
2023-05-14T15:44:52.425Z,99446.34
2023-05-14T15:46:55.346Z,99432.81
2023-05-14T15:48:58.714Z,99476.19
2023-05-14T15:51:01.309Z,99376.56
2023-05-14T15:53:04.022Z,99421.75
2023-05-14T15:55:08.424Z,99394.72
2023-05-14T15:57:11.189Z,99433.34
2023-05-14T15:59:15.663Z,99426.78
2023-05-14T16:01:19.667Z,99444.84
2023-05-14T16:03:22.430Z,99372.41
2023-05-14T16:05:25.635Z,99371.72
2023-05-14T16:07:28.198Z,99437.63
2023-05-14T16:09:31.415Z,99404.75
2023-05-14T16:11:34.591Z,99391.41
2023-05-14T16:13:39.035Z,99408.81
2023-05-14T16:15:42.870Z,99408.94
2023-05-14T16:17:45.909Z,99398.22
2023-05-14T16:19:48.635Z,99381.09
2023-05-14T16:21:51.508Z,99383.19
2023-05-14T16:23:54.220Z,99374.66
2023-05-14T16:25:57.164Z,99386.75
2023-05-14T16:28:00.783Z,99333.09
2023-05-14T16:30:05.553Z,99388.69
2023-05-14T16:32:09.234Z,99377.53
2023-05-14T16:34:12.084Z,99405.66
2023-05-14T16:36:14.984Z,99317.38
2023-05-14T16:38:19.861Z,99408.88
2023-05-14T16:40:24.104Z,99383.59
2023-05-14T16:42:27.241Z,99357.13
2023-05-14T16:44:30.209Z,99369.09
2023-05-14T16:46:33.469Z,99381.41
2023-05-14T16:48:36.337Z,99314.78
2023-05-14T16:50:39.050Z,99398.06
2023-05-14T16:52:42.431Z,99407.09
2023-05-14T16:54:45.562Z,99418.88
2023-05-14T16:56:48.481Z,99425.75
2023-05-14T16:58:52.266Z,99398.28
2023-05-14T17:00:54.906Z,99394.97
2023-05-14T17:02:57.892Z,99393.31
2023-05-14T17:05:01.357Z,99419.22
2023-05-14T17:07:06.162Z,99399.28
2023-05-14T17:09:09.057Z,99378.81
2023-05-14T17:11:12.067Z,99383.41
2023-05-14T17:13:15.753Z,99361.66
2023-05-14T17:15:18.489Z,99304.06
2023-05-14T17:17:21.257Z,99285.25
2023-05-14T17:19:24.140Z,99348.06
2023-05-14T17:21:27.289Z,99348.28
2023-05-14T17:23:29.966Z,99334.34
2023-05-14T17:25:33.949Z,99352.53
2023-05-14T17:27:36.933Z,99357.47
2023-05-14T17:29:39.913Z,99305.66
2023-05-14T17:31:43.430Z,99370.47
2023-05-14T17:33:46.110Z,99296.81
2023-05-14T17:35:49.602Z,99349.44
2023-05-14T17:37:52.698Z,99320.19
2023-05-14T17:39:55.520Z,99303.28
2023-05-14T17:41:58.104Z,99373.94
2023-05-14T17:44:00.959Z,99379.09
2023-05-14T17:46:04.053Z,99418.19
2023-05-14T17:48:07.075Z,99425.22
2023-05-14T17:50:09.972Z,99364.81
2023-05-14T17:52:12.780Z,99384.19
2023-05-14T17:54:15.550Z,99419.88
2023-05-14T17:56:19.322Z,99429.97
2023-05-14T17:58:22.179Z,99324.38
2023-05-14T18:00:25.677Z,99371.66
2023-05-14T18:02:28.573Z,99340.69
2023-05-14T18:04:31.586Z,99416.09
2023-05-14T18:06:34.261Z,99385.97
2023-05-14T18:08:37.140Z,99369.88
2023-05-14T18:10:40.148Z,99339.53
2023-05-14T18:12:43.483Z,99370.00
2023-05-14T18:14:46.798Z,99351.75
2023-05-14T18:16:49.563Z,99298.19
2023-05-14T18:18:52.969Z,99405.84
2023-05-14T18:20:55.861Z,99342.97
2023-05-14T18:22:58.741Z,99408.44
2023-05-14T18:25:01.472Z,99381.72
2023-05-14T18:27:05.504Z,99358.09
2023-05-14T18:29:08.559Z,99406.84
2023-05-14T18:31:11.547Z,99374.19
2023-05-14T18:33:14.479Z,99398.94
2023-05-14T18:35:17.436Z,99361.44
2023-05-14T18:37:19.926Z,99409.56
2023-05-14T18:39:23.186Z,99410.16
2023-05-14T18:41:26.016Z,99456.81
2023-05-14T18:43:28.999Z,99387.31
2023-05-14T18:45:31.954Z,99417.78
2023-05-14T18:47:35.759Z,99388.06
2023-05-14T18:49:42.968Z,99431.31
2023-05-14T18:51:46.583Z,99431.91
2023-05-14T18:53:49.421Z,99397.72
2023-05-14T18:55:52.810Z,99439.81
2023-05-14T18:57:55.712Z,99433.78
2023-05-14T18:59:58.381Z,99398.06
2023-05-14T19:02:01.014Z,99458.09
2023-05-14T19:04:05.386Z,99422.59
2023-05-14T19:06:08.580Z,99447.06
2023-05-14T19:08:11.979Z,99372.53
2023-05-14T19:10:15.243Z,99460.28
2023-05-14T19:12:18.086Z,99415.13
2023-05-14T19:14:20.878Z,99410.84
2023-05-14T19:16:24.988Z,99426.38
2023-05-14T19:18:27.776Z,99447.41
2023-05-14T19:20:30.620Z,99449.66
2023-05-14T19:22:33.502Z,99428.69
2023-05-14T19:24:38.413Z,99427.66
2023-05-14T19:26:42.362Z,99361.97
2023-05-14T19:28:44.932Z,99424.41
2023-05-14T19:30:48.228Z,99452.94
2023-05-14T19:32:51.419Z,99429.31
2023-05-14T19:34:54.773Z,99445.91
2023-05-14T19:36:57.962Z,99402.38
2023-05-14T19:39:01.053Z,99445.75
2023-05-14T19:41:04.041Z,99438.88
2023-05-14T19:43:08.990Z,99432.34
2023-05-14T19:45:12.340Z,99451.09
2023-05-14T19:47:15.906Z,99425.50
2023-05-14T19:49:18.917Z,99462.53
2023-05-14T19:51:21.848Z,99464.47
2023-05-14T19:53:30.254Z,99455.78
2023-05-14T19:55:33.378Z,99415.19
2023-05-14T19:57:35.985Z,99384.34
2023-05-14T19:59:40.007Z,99361.19
2023-05-14T20:01:42.649Z,99395.78
2023-05-14T20:03:45.436Z,99437.66
2023-05-14T20:05:49.464Z,99406.84
2023-05-14T20:07:54.968Z,99422.63
2023-05-14T20:09:57.622Z,99442.56
2023-05-14T20:12:00.446Z,99383.69
2023-05-14T20:14:03.373Z,99357.28
2023-05-14T20:16:07.124Z,99419.91
2023-05-14T20:18:10.381Z,99388.28
2023-05-14T20:20:14.861Z,99451.22
2023-05-14T20:22:17.613Z,99446.34
2023-05-14T20:24:20.620Z,99392.97
2023-05-14T20:26:23.291Z,99414.34
2023-05-14T20:28:26.459Z,99385.59
2023-05-14T20:30:29.529Z,99397.84
2023-05-14T20:32:32.700Z,99429.56
2023-05-14T20:34:35.442Z,99360.03
2023-05-14T20:36:38.129Z,99323.00
2023-05-14T20:38:41.357Z,99373.44
2023-05-14T20:40:45.091Z,99390.88
2023-05-14T20:42:47.870Z,99327.31
2023-05-14T20:44:51.093Z,99382.41
2023-05-14T20:46:53.748Z,99392.84
2023-05-14T20:48:57.885Z,99354.72
2023-05-14T20:51:02.094Z,99347.66
2023-05-14T20:53:05.136Z,99337.53
2023-05-14T20:55:08.939Z,99339.31
2023-05-14T20:57:12.082Z,99283.75
2023-05-14T20:59:14.642Z,99333.63
2023-05-14T21:01:17.936Z,99321.25
2023-05-14T21:03:21.809Z,99342.59
2023-05-14T21:05:24.987Z,99326.81
2023-05-14T21:07:28.903Z,99321.28
2023-05-14T21:09:31.853Z,99282.88
2023-05-14T21:11:34.728Z,99265.16
2023-05-14T21:13:37.419Z,99261.56
2023-05-14T21:15:40.266Z,99256.69
2023-05-14T21:17:42.934Z,99244.47
2023-05-14T21:19:45.527Z,99233.06
2023-05-14T21:21:48.061Z,99285.38
2023-05-14T21:23:50.630Z,99271.38
2023-05-14T21:25:55.020Z,99206.72
2023-05-14T21:27:58.204Z,99230.66
2023-05-14T21:30:00.621Z,99232.13
2023-05-14T21:32:03.454Z,99233.72
2023-05-14T21:34:06.768Z,99175.09
2023-05-14T21:36:10.139Z,99236.53
2023-05-14T21:38:13.246Z,99211.28
2023-05-14T21:40:16.588Z,99204.16
2023-05-14T21:42:21.589Z,99154.78
2023-05-14T21:44:24.236Z,99213.09
2023-05-14T21:46:27.125Z,99197.75
2023-05-14T21:48:29.663Z,99187.03
2023-05-14T21:50:31.993Z,99205.97
2023-05-14T21:52:34.442Z,99210.97
2023-05-14T21:54:36.855Z,99151.22
2023-05-14T21:56:40.567Z,99184.06
2023-05-14T21:58:43.081Z,99222.88
2023-05-14T22:00:46.045Z,99218.31
2023-05-14T22:02:48.686Z,99152.94
2023-05-14T22:04:51.180Z,99150.56
2023-05-14T22:06:53.913Z,99156.41
2023-05-14T22:08:56.724Z,99172.53
2023-05-14T22:10:59.094Z,99204.28
2023-05-14T22:13:01.729Z,99177.31
2023-05-14T22:15:05.744Z,99168.81
2023-05-14T22:17:08.754Z,99183.78
2023-05-14T22:19:12.260Z,99148.16
2023-05-14T22:21:15.565Z,99164.91
2023-05-14T22:23:18.582Z,99168.00
2023-05-14T22:25:21.053Z,99170.75
2023-05-14T22:27:23.652Z,99137.38
2023-05-14T22:29:26.582Z,99140.81
2023-05-14T22:31:30.553Z,99141.00
2023-05-14T22:33:33.692Z,99156.25
2023-05-14T22:35:36.996Z,99130.00
2023-05-14T22:37:40.572Z,99138.81
2023-05-14T22:39:44.273Z,99138.13
2023-05-14T22:41:46.753Z,99186.22
2023-05-14T22:43:50.443Z,99167.84
2023-05-14T22:45:53.548Z,99105.59
2023-05-14T22:47:56.062Z,99137.28
2023-05-14T22:49:58.573Z,99157.94
2023-05-14T22:52:02.005Z,99131.56
2023-05-14T22:54:05.393Z,99173.56
2023-05-14T22:56:08.478Z,99176.84
2023-05-14T22:58:11.524Z,99134.84
2023-05-14T23:00:15.212Z,99153.56
2023-05-14T23:02:18.482Z,99091.41
2023-05-14T23:04:21.438Z,99049.28
2023-05-14T23:06:25.569Z,99093.75
2023-05-14T23:08:28.511Z,99094.09
2023-05-14T23:10:31.205Z,99064.00
2023-05-14T23:12:34.961Z,99087.06
2023-05-14T23:14:38.203Z,99094.91
2023-05-14T23:16:40.913Z,99073.25
2023-05-14T23:18:44.330Z,99077.50
2023-05-14T23:20:46.916Z,99105.50
2023-05-14T23:22:49.861Z,99067.16
2023-05-14T23:24:53.052Z,99084.06
2023-05-14T23:26:56.278Z,99005.16
2023-05-14T23:28:58.888Z,99043.09
2023-05-14T23:31:01.843Z,98980.03
2023-05-14T23:33:04.452Z,99027.38
2023-05-14T23:35:07.111Z,99035.81
2023-05-14T23:37:09.932Z,99071.94
2023-05-14T23:39:12.794Z,99050.97
2023-05-14T23:41:15.159Z,98972.53
2023-05-14T23:43:18.187Z,99030.16
2023-05-14T23:45:21.229Z,99060.41
2023-05-14T23:47:23.702Z,99021.72
2023-05-14T23:49:26.494Z,99032.13
2023-05-14T23:51:29.033Z,98937.50
2023-05-14T23:53:32.129Z,98965.44
2023-05-14T23:55:34.817Z,98961.06
2023-05-14T23:57:37.807Z,98999.63
2023-05-14T23:59:40.680Z,99019.09
